createdAt,value
2022-12-09T00:01:25.852Z,1.89
2022-12-09T00:03:56.855Z,1.92
2022-12-09T00:06:29.955Z,1.91
2022-12-09T00:08:59.187Z,1.94
2022-12-09T00:11:28.390Z,1.96
2022-12-09T00:14:00.108Z,1.98
2022-12-09T00:16:28.956Z,1.98
2022-12-09T00:18:58.626Z,2.00
2022-12-09T00:21:32.519Z,2.06
2022-12-09T00:24:06.342Z,2.12
2022-12-09T00:26:35.385Z,2.15
2022-12-09T00:29:09.468Z,2.14
2022-12-09T00:31:39.983Z,2.13
2022-12-09T00:34:13.419Z,2.12
2022-12-09T00:36:42.442Z,2.11
2022-12-09T00:39:12.740Z,2.09
2022-12-09T00:41:41.678Z,2.09
2022-12-09T00:44:12.672Z,2.11
2022-12-09T00:46:41.372Z,2.13
2022-12-09T00:49:12.096Z,2.12
2022-12-09T00:51:41.152Z,2.08
2022-12-09T00:54:10.216Z,2.03
2022-12-09T00:56:39.182Z,1.98
2022-12-09T00:59:07.827Z,1.98
2022-12-09T01:01:36.658Z,2.02
2022-12-09T01:04:09.017Z,2.05
2022-12-09T01:06:38.058Z,2.09
2022-12-09T01:09:08.176Z,2.14
2022-12-09T01:11:51.078Z,2.16
2022-12-09T01:14:28.067Z,2.19
2022-12-09T01:17:10.500Z,2.18
2022-12-09T01:20:11.080Z,2.18
2022-12-09T01:23:03.875Z,2.18
2022-12-09T01:25:39.999Z,2.18
2022-12-09T01:28:18.483Z,2.22
2022-12-09T01:30:47.831Z,2.29
2022-12-09T01:33:17.415Z,2.30
2022-12-09T01:35:46.049Z,2.33
2022-12-09T01:38:14.787Z,2.35
2022-12-09T01:40:47.652Z,2.36
2022-12-09T01:43:19.705Z,2.34
2022-12-09T01:45:49.850Z,2.31
2022-12-09T01:48:28.446Z,2.30
2022-12-09T01:51:03.558Z,2.31
2022-12-09T01:53:39.700Z,2.33
2022-12-09T01:56:20.519Z,2.33
2022-12-09T01:58:51.611Z,2.30
2022-12-09T02:01:21.842Z,2.27
2022-12-09T02:03:51.097Z,2.25
2022-12-09T02:06:29.983Z,2.20
2022-12-09T02:09:11.075Z,2.21
2022-12-09T02:12:08.403Z,2.20
2022-12-09T02:15:06.959Z,2.15
2022-12-09T02:22:04.803Z,2.13
2022-12-09T02:25:04.436Z,2.15
2022-12-09T02:28:22.973Z,2.15
2022-12-09T02:32:03.137Z,2.17
2022-12-09T02:38:06.823Z,2.07
2022-12-09T02:41:17.373Z,2.05
2022-12-09T02:44:30.108Z,2.07
2022-12-09T02:47:58.320Z,1.99
2022-12-09T02:50:39.567Z,1.93
2022-12-09T02:53:15.313Z,1.88
2022-12-09T02:55:56.554Z,1.83
2022-12-09T02:58:55.285Z,1.82
2022-12-09T03:01:46.392Z,1.80
2022-12-09T03:04:22.189Z,1.86
2022-12-09T03:07:00.487Z,1.88
2022-12-09T03:09:35.549Z,1.85
2022-12-09T03:12:09.833Z,1.76
2022-12-09T03:14:50.070Z,1.76
2022-12-09T03:17:31.225Z,1.72
2022-12-09T03:20:12.874Z,1.64
2022-12-09T03:22:46.412Z,1.53
2022-12-09T03:25:26.977Z,1.48
2022-12-09T03:28:12.192Z,1.41
2022-12-09T03:30:45.608Z,1.38
2022-12-09T03:33:19.529Z,1.38
2022-12-09T03:35:59.892Z,1.36
2022-12-09T03:38:35.786Z,1.30
2022-12-09T03:41:17.844Z,1.28
2022-12-09T03:43:56.090Z,1.29
2022-12-09T03:46:25.984Z,1.33
2022-12-09T03:48:55.231Z,1.35
2022-12-09T03:51:40.509Z,1.33
2022-12-09T03:54:32.809Z,1.34
2022-12-09T03:57:49.651Z,1.34
2022-12-09T04:00:19.080Z,1.35
2022-12-09T04:02:48.300Z,1.36
2022-12-09T04:05:17.718Z,1.35
2022-12-09T04:07:46.603Z,1.24
2022-12-09T04:10:15.710Z,1.21
2022-12-09T04:12:44.593Z,1.22
2022-12-09T04:15:13.309Z,1.25
2022-12-09T04:17:42.390Z,1.31
2022-12-09T04:20:12.372Z,1.34
2022-12-09T04:22:42.124Z,1.32
2022-12-09T04:25:11.040Z,1.28
2022-12-09T04:27:40.157Z,1.28
2022-12-09T04:30:10.253Z,1.32
2022-12-09T04:32:38.988Z,1.33
2022-12-09T04:35:08.898Z,1.30
2022-12-09T04:37:46.178Z,1.30
2022-12-09T04:40:24.045Z,1.32
2022-12-09T04:42:53.637Z,1.43
2022-12-09T04:45:37.356Z,1.49
2022-12-09T04:48:11.717Z,1.52
2022-12-09T04:50:48.483Z,1.52
2022-12-09T04:53:24.414Z,1.45
2022-12-09T04:56:09.204Z,1.43
2022-12-09T04:58:45.161Z,1.39
2022-12-09T05:01:20.471Z,1.36
2022-12-09T05:03:54.366Z,1.37
2022-12-09T05:06:24.528Z,1.35
2022-12-09T05:08:58.777Z,1.35
2022-12-09T05:11:32.980Z,1.38
2022-12-09T05:14:01.904Z,1.39
2022-12-09T05:16:31.049Z,1.37
2022-12-09T05:19:04.803Z,1.39
2022-12-09T05:21:33.661Z,1.45
2022-12-09T05:24:07.693Z,1.52
2022-12-09T05:26:40.547Z,1.55
2022-12-09T05:29:17.879Z,1.55
2022-12-09T05:31:58.161Z,1.53
2022-12-09T05:34:27.383Z,1.47
2022-12-09T05:36:56.270Z,1.48
2022-12-09T05:39:28.609Z,1.50
2022-12-09T05:41:57.706Z,1.52
2022-12-09T05:44:26.809Z,1.55
2022-12-09T05:46:59.589Z,1.59
2022-12-09T05:49:33.320Z,1.66
2022-12-09T05:52:06.848Z,1.68
2022-12-09T05:54:36.034Z,1.70
2022-12-09T05:57:11.477Z,1.68
2022-12-09T05:59:40.432Z,1.64
2022-12-09T06:02:10.412Z,1.63
2022-12-09T06:04:40.148Z,1.65
2022-12-09T06:07:09.428Z,1.66
2022-12-09T06:09:38.395Z,1.63
2022-12-09T06:12:07.849Z,1.61
2022-12-09T06:14:37.096Z,1.63
2022-12-09T06:17:06.271Z,1.69
2022-12-09T06:19:35.309Z,1.68
2022-12-09T06:22:04.824Z,1.71
2022-12-09T06:24:35.830Z,1.77
2022-12-09T06:27:05.294Z,1.75
2022-12-09T06:29:34.308Z,1.78
2022-12-09T06:32:03.598Z,1.81
2022-12-09T06:34:32.964Z,1.82
2022-12-09T06:37:02.101Z,1.77
2022-12-09T06:39:31.408Z,1.75
2022-12-09T06:42:00.127Z,1.72
2022-12-09T06:44:29.082Z,1.70
2022-12-09T06:46:58.392Z,1.68
2022-12-09T06:49:27.759Z,1.62
2022-12-09T06:51:56.939Z,1.53
2022-12-09T06:54:26.581Z,1.44
2022-12-09T06:56:55.658Z,1.43
2022-12-09T06:59:25.472Z,1.51
2022-12-09T07:01:54.617Z,1.58
2022-12-09T07:04:24.173Z,1.61
2022-12-09T07:06:53.499Z,1.65
2022-12-09T07:09:23.024Z,1.69
2022-12-09T07:11:52.181Z,1.68
2022-12-09T07:14:21.461Z,1.66
2022-12-09T07:16:50.651Z,1.63
2022-12-09T07:19:23.115Z,1.65
2022-12-09T07:21:52.627Z,1.74
2022-12-09T07:24:22.041Z,1.78
2022-12-09T07:26:51.400Z,1.85
2022-12-09T07:29:20.752Z,1.96
2022-12-09T07:31:49.787Z,2.00
2022-12-09T07:34:18.731Z,1.98
2022-12-09T07:36:47.571Z,1.97
2022-12-09T07:39:19.306Z,2.05
2022-12-09T07:41:59.566Z,2.09
2022-12-09T07:44:32.399Z,2.17
2022-12-09T07:47:01.384Z,2.28
2022-12-09T07:49:30.713Z,2.35
2022-12-09T07:51:59.504Z,2.42
2022-12-09T07:54:28.372Z,2.49
2022-12-09T07:56:57.226Z,2.60
2022-12-09T07:59:25.978Z,2.72
2022-12-09T08:01:54.944Z,2.83
2022-12-09T08:04:24.526Z,2.94
2022-12-09T08:06:53.700Z,2.99
2022-12-09T08:09:22.863Z,3.04
2022-12-09T08:11:51.836Z,3.09
2022-12-09T08:14:21.001Z,3.11
2022-12-09T08:16:50.012Z,3.10
2022-12-09T08:19:18.892Z,3.11
2022-12-09T08:21:54.142Z,3.16
2022-12-09T08:24:23.518Z,3.25
2022-12-09T08:26:52.745Z,3.35
2022-12-09T08:29:22.259Z,3.42
2022-12-09T08:31:51.316Z,3.51
2022-12-09T08:34:20.669Z,3.65
2022-12-09T08:36:49.593Z,3.78
2022-12-09T08:39:18.878Z,3.90
2022-12-09T08:41:47.860Z,4.06
2022-12-09T08:44:20.283Z,4.23
2022-12-09T08:46:52.867Z,4.32
2022-12-09T08:49:23.597Z,4.41
2022-12-09T08:51:54.538Z,4.51
2022-12-09T08:54:24.235Z,4.57
2022-12-09T08:56:56.259Z,4.57
2022-12-09T08:59:25.564Z,4.57
2022-12-09T09:01:54.768Z,4.57
2022-12-09T09:04:24.396Z,4.51
2022-12-09T09:06:54.162Z,4.41
2022-12-09T09:09:24.368Z,4.37
2022-12-09T09:11:53.328Z,4.34
2022-12-09T09:14:22.241Z,4.28
2022-12-09T09:16:51.266Z,4.21
2022-12-09T09:19:26.778Z,4.18
2022-12-09T09:21:56.482Z,4.18
2022-12-09T09:24:26.813Z,4.17
2022-12-09T09:26:56.821Z,4.19
2022-12-09T09:29:25.770Z,4.21
2022-12-09T09:31:56.147Z,4.20
2022-12-09T09:34:27.896Z,4.24
2022-12-09T09:36:57.890Z,4.28
2022-12-09T09:39:26.788Z,4.31
2022-12-09T09:42:08.120Z,4.32
2022-12-09T09:44:47.914Z,4.35
2022-12-09T09:47:45.675Z,4.35
2022-12-09T09:50:51.117Z,4.36
2022-12-09T09:53:32.070Z,4.29
2022-12-09T09:56:06.466Z,4.25
2022-12-09T09:58:48.022Z,4.18
2022-12-09T10:01:20.029Z,4.12
2022-12-09T10:04:05.375Z,4.07
2022-12-09T10:06:52.552Z,4.02
2022-12-09T10:10:05.247Z,3.97
2022-12-09T10:13:04.601Z,3.94
2022-12-09T10:15:48.197Z,3.94
2022-12-09T10:18:52.529Z,3.91
2022-12-09T10:21:22.649Z,3.85
2022-12-09T10:23:52.169Z,3.77
2022-12-09T10:26:31.982Z,3.73
2022-12-09T10:29:24.586Z,3.70
2022-12-09T10:31:53.827Z,3.63
2022-12-09T10:34:22.968Z,3.59
2022-12-09T10:36:52.571Z,3.57
2022-12-09T10:39:22.800Z,3.54
2022-12-09T10:42:16.049Z,3.52
2022-12-09T10:44:49.120Z,3.54
2022-12-09T10:47:30.035Z,3.58
2022-12-09T10:50:00.292Z,3.62
2022-12-09T10:52:40.489Z,3.65
2022-12-09T10:55:31.444Z,3.68
2022-12-09T10:58:29.845Z,3.70
2022-12-09T11:01:07.015Z,3.71
2022-12-09T11:03:54.900Z,3.72
2022-12-09T11:06:40.139Z,3.76
2022-12-09T11:09:27.072Z,3.80
2022-12-09T11:11:56.052Z,3.82
2022-12-09T11:14:39.890Z,3.87
2022-12-09T11:17:21.788Z,3.93
2022-12-09T11:20:10.009Z,3.99
2022-12-09T11:22:55.441Z,4.03
2022-12-09T11:25:30.477Z,4.09
2022-12-09T11:28:39.540Z,4.19
2022-12-09T11:31:30.411Z,4.29
2022-12-09T11:34:15.387Z,4.36
2022-12-09T11:36:51.813Z,4.44
2022-12-09T11:39:28.799Z,4.45
2022-12-09T11:42:23.927Z,4.38
2022-12-09T11:45:06.792Z,4.37
2022-12-09T11:48:21.141Z,4.32
2022-12-09T11:50:33.202Z,4.31
2022-12-09T11:53:24.841Z,4.34
2022-12-09T11:56:19.561Z,4.42
2022-12-09T11:59:03.520Z,4.41
2022-12-09T12:02:04.957Z,4.37
2022-12-09T12:05:00.320Z,4.32
2022-12-09T12:07:49.315Z,4.34
2022-12-09T12:10:31.462Z,4.33
2022-12-09T12:13:21.643Z,4.31
2022-12-09T12:16:05.686Z,4.29
2022-12-09T12:19:06.301Z,4.26
2022-12-09T12:22:11.651Z,4.25
2022-12-09T12:25:12.502Z,4.24
2022-12-09T12:28:16.536Z,4.25
2022-12-09T12:31:59.164Z,4.28
2022-12-09T12:35:09.909Z,4.26
2022-12-09T12:38:21.765Z,4.27
2022-12-09T12:41:52.472Z,4.29
2022-12-09T12:44:56.377Z,4.28
2022-12-09T12:47:45.667Z,4.31
2022-12-09T12:50:48.287Z,4.37
2022-12-09T12:53:40.432Z,4.42
2022-12-09T12:56:15.666Z,4.47
2022-12-09T12:59:01.006Z,4.45
2022-12-09T13:02:02.659Z,4.44
2022-12-09T13:04:48.114Z,4.42
2022-12-09T13:07:51.774Z,4.38
2022-12-09T13:10:33.574Z,4.37
2022-12-09T13:13:06.121Z,4.28
2022-12-09T13:15:44.105Z,4.23
2022-12-09T13:18:21.514Z,4.16
2022-12-09T13:20:55.165Z,4.09
2022-12-09T13:23:46.403Z,4.05
2022-12-09T13:26:33.207Z,3.99
2022-12-09T13:29:58.405Z,3.95
2022-12-09T13:33:03.555Z,3.95
2022-12-09T13:36:22.867Z,3.97
2022-12-09T13:38:51.590Z,4.04
2022-12-09T13:41:52.464Z,4.12
2022-12-09T13:44:21.964Z,4.17
2022-12-09T13:46:52.375Z,4.17
2022-12-09T13:49:26.378Z,4.10
2022-12-09T13:51:56.584Z,4.01
2022-12-09T13:54:30.007Z,3.95
2022-12-09T13:57:41.932Z,3.93
2022-12-09T14:00:19.084Z,3.88
2022-12-09T14:03:05.264Z,3.85
2022-12-09T14:05:37.706Z,3.81
2022-12-09T14:08:34.434Z,3.74
2022-12-09T14:11:38.425Z,3.69
2022-12-09T14:14:26.162Z,3.63
2022-12-09T14:16:57.499Z,3.57
2022-12-09T14:19:26.091Z,3.51
2022-12-09T14:22:20.616Z,3.47
2022-12-09T14:24:53.200Z,3.38
2022-12-09T14:27:29.227Z,3.31
2022-12-09T14:30:25.250Z,3.25
2022-12-09T14:32:56.159Z,3.20
2022-12-09T14:35:49.701Z,3.13
2022-12-09T14:38:33.399Z,3.08
2022-12-09T14:41:34.331Z,3.05
2022-12-09T14:44:08.958Z,2.97
2022-12-09T14:46:42.266Z,2.92
2022-12-09T14:49:29.067Z,2.88
2022-12-09T14:52:11.142Z,2.85
2022-12-09T14:54:47.359Z,2.83
2022-12-09T14:57:48.341Z,2.83
2022-12-09T15:00:39.550Z,2.84
2022-12-09T15:03:35.728Z,2.83
2022-12-09T15:06:18.344Z,2.85
2022-12-09T15:08:48.740Z,2.86
2022-12-09T15:11:24.279Z,2.86
2022-12-09T15:14:17.260Z,2.86
2022-12-09T15:16:50.535Z,2.89
2022-12-09T15:19:57.983Z,2.88
2022-12-09T15:22:24.240Z,2.85
2022-12-09T15:24:54.322Z,2.79
2022-12-09T15:27:25.802Z,2.75
2022-12-09T15:29:55.661Z,2.73
2022-12-09T15:32:31.062Z,2.69
2022-12-09T15:35:31.663Z,2.67
2022-12-09T15:38:08.231Z,2.65
2022-12-09T15:40:38.904Z,2.61
2022-12-09T15:43:12.306Z,2.64
2022-12-09T15:45:43.821Z,2.65
2022-12-09T15:48:23.228Z,2.62
2022-12-09T15:50:59.052Z,2.57
2022-12-09T15:53:48.296Z,2.54
2022-12-09T15:56:47.840Z,2.53
2022-12-09T15:59:25.588Z,2.49
2022-12-09T16:01:58.145Z,2.43
2022-12-09T16:04:37.268Z,2.40
2022-12-09T16:07:15.011Z,2.35
2022-12-09T16:10:14.943Z,2.34
2022-12-09T16:12:45.479Z,2.32
2022-12-09T16:15:41.559Z,2.35
2022-12-09T16:18:27.364Z,2.33
2022-12-09T16:21:30.219Z,2.28
2022-12-09T16:24:12.060Z,2.28
2022-12-09T16:26:47.387Z,2.24
2022-12-09T16:29:33.710Z,2.23
2022-12-09T16:32:30.696Z,2.23
2022-12-09T16:35:13.401Z,2.24
2022-12-09T16:38:14.869Z,2.26
2022-12-09T16:40:46.735Z,2.32
2022-12-09T16:43:22.849Z,2.29
2022-12-09T16:46:21.448Z,2.27
2022-12-09T16:48:51.539Z,2.26
2022-12-09T16:51:25.541Z,2.24
2022-12-09T16:53:55.214Z,2.21
2022-12-09T16:56:28.171Z,2.20
2022-12-09T16:58:59.613Z,2.17
2022-12-09T17:01:36.384Z,2.13
2022-12-09T17:04:14.834Z,2.10
2022-12-09T17:06:43.994Z,2.05
2022-12-09T17:09:13.664Z,2.06
2022-12-09T17:11:48.623Z,2.05
2022-12-09T17:14:19.292Z,2.04
2022-12-09T17:16:48.374Z,2.01
2022-12-09T17:19:17.317Z,2.01
2022-12-09T17:21:46.200Z,2.00
2022-12-09T17:24:14.897Z,1.97
2022-12-09T17:26:43.639Z,1.95
2022-12-09T17:29:12.561Z,1.93
2022-12-09T17:31:42.247Z,1.91
2022-12-09T17:34:11.081Z,1.88
2022-12-09T17:36:40.317Z,1.88
2022-12-09T17:39:13.049Z,1.89
2022-12-09T17:41:43.415Z,1.89
2022-12-09T17:44:12.230Z,1.87
2022-12-09T17:46:41.291Z,1.85
2022-12-09T17:49:09.980Z,1.82
2022-12-09T17:51:39.401Z,1.82
2022-12-09T17:54:08.728Z,1.81
2022-12-09T17:56:37.904Z,1.79
2022-12-09T17:59:12.772Z,1.79
2022-12-09T18:01:44.170Z,1.79
2022-12-09T18:04:15.019Z,1.78
2022-12-09T18:06:46.519Z,1.78
2022-12-09T18:09:19.199Z,1.73
2022-12-09T18:11:48.669Z,1.73
2022-12-09T18:14:19.305Z,1.74
2022-12-09T18:16:49.481Z,1.76
2022-12-09T18:19:21.100Z,1.83
2022-12-09T18:21:49.800Z,1.87
2022-12-09T18:24:19.040Z,1.80
2022-12-09T18:26:48.008Z,1.79
2022-12-09T18:29:17.685Z,1.78
2022-12-09T18:31:46.780Z,1.77
2022-12-09T18:34:15.620Z,1.76
2022-12-09T18:36:44.240Z,1.75
2022-12-09T18:39:12.880Z,1.73
2022-12-09T18:41:41.595Z,1.73
2022-12-09T18:44:12.220Z,1.72
2022-12-09T18:46:47.014Z,1.70
2022-12-09T18:49:20.780Z,1.68
2022-12-09T18:51:53.083Z,1.68
2022-12-09T18:54:29.102Z,1.67
2022-12-09T18:56:57.981Z,1.65
2022-12-09T18:59:27.499Z,1.65
2022-12-09T19:01:58.380Z,1.65
2022-12-09T19:04:30.297Z,1.65
2022-12-09T19:07:00.883Z,1.63
2022-12-09T19:09:34.893Z,1.65
2022-12-09T19:12:38.354Z,1.66
2022-12-09T19:14:57.228Z,1.62
2022-12-09T19:17:26.203Z,1.60
2022-12-09T19:19:55.599Z,1.56
2022-12-09T19:22:24.282Z,1.52
2022-12-09T19:24:53.828Z,1.50
2022-12-09T19:27:22.980Z,1.50
2022-12-09T19:29:52.039Z,1.51
2022-12-09T19:32:51.541Z,1.49
2022-12-09T19:35:10.649Z,1.48
2022-12-09T19:37:40.876Z,1.47
2022-12-09T19:40:11.193Z,1.44
2022-12-09T19:42:41.041Z,1.41
2022-12-09T19:45:13.953Z,1.40
2022-12-09T19:47:43.398Z,1.41
2022-12-09T19:50:12.139Z,1.38
2022-12-09T19:52:42.121Z,1.35
2022-12-09T19:55:11.719Z,1.34
2022-12-09T19:57:40.478Z,1.34
2022-12-09T20:00:11.822Z,1.34
2022-12-09T20:02:40.707Z,1.36
2022-12-09T20:05:09.719Z,1.41
2022-12-09T20:07:38.448Z,1.40
2022-12-09T20:10:08.297Z,1.35
2022-12-09T20:12:39.171Z,1.32
2022-12-09T20:15:08.378Z,1.30
2022-12-09T20:17:36.979Z,1.29
2022-12-09T20:20:06.928Z,1.30
2022-12-09T20:22:35.839Z,1.29
2022-12-09T20:25:04.778Z,1.29
2022-12-09T20:27:34.723Z,1.30
2022-12-09T20:30:03.729Z,1.30
2022-12-09T20:32:32.708Z,1.29
2022-12-09T20:35:08.021Z,1.29
2022-12-09T20:37:38.112Z,1.29
2022-12-09T20:40:08.099Z,1.30
2022-12-09T20:42:37.148Z,1.31
2022-12-09T20:45:07.129Z,1.33
2022-12-09T20:47:36.081Z,1.33
2022-12-09T20:50:05.841Z,1.33
2022-12-09T20:52:34.806Z,1.32
2022-12-09T20:55:03.930Z,1.33
2022-12-09T20:57:32.956Z,1.36
2022-12-09T21:00:01.687Z,1.37
2022-12-09T21:02:30.540Z,1.39
2022-12-09T21:04:59.281Z,1.40
2022-12-09T21:07:28.122Z,1.41
2022-12-09T21:09:56.931Z,1.40
2022-12-09T21:12:25.989Z,1.40
2022-12-09T21:14:54.726Z,1.40
2022-12-09T21:17:23.525Z,1.40
2022-12-09T21:19:52.255Z,1.41
2022-12-09T21:22:21.125Z,1.43
2022-12-09T21:24:49.852Z,1.43
2022-12-09T21:27:18.572Z,1.45
2022-12-09T21:29:47.326Z,1.44
2022-12-09T21:32:16.028Z,1.42
2022-12-09T21:34:44.685Z,1.44
2022-12-09T21:37:13.406Z,1.44
2022-12-09T21:39:42.026Z,1.44
2022-12-09T21:42:10.772Z,1.45
2022-12-09T21:44:41.325Z,1.46
2022-12-09T21:47:09.945Z,1.46
2022-12-09T21:49:38.966Z,1.46
2022-12-09T21:52:07.708Z,1.47
2022-12-09T21:54:36.548Z,1.49
2022-12-09T21:57:05.358Z,1.49
2022-12-09T21:59:34.000Z,1.50
2022-12-09T22:02:02.653Z,1.50
2022-12-09T22:04:31.259Z,1.51
2022-12-09T22:06:59.881Z,1.50
2022-12-09T22:09:28.680Z,1.48
2022-12-09T22:11:57.320Z,1.47
2022-12-09T22:14:26.079Z,1.47
2022-12-09T22:16:54.988Z,1.48
2022-12-09T22:19:23.660Z,1.48
2022-12-09T22:21:52.378Z,1.49
2022-12-09T22:24:21.118Z,1.45
2022-12-09T22:26:49.860Z,1.44
2022-12-09T22:29:19.541Z,1.45
2022-12-09T22:31:48.250Z,1.46
2022-12-09T22:34:20.999Z,1.48
2022-12-09T22:36:50.501Z,1.50
2022-12-09T22:39:22.100Z,1.50
2022-12-09T22:41:51.940Z,1.49
2022-12-09T22:44:21.260Z,1.49
2022-12-09T22:46:50.103Z,1.51
2022-12-09T22:49:19.140Z,1.55
2022-12-09T22:51:48.319Z,1.57
2022-12-09T22:54:17.438Z,1.57
2022-12-09T22:56:46.380Z,1.56
2022-12-09T22:59:16.627Z,1.55
2022-12-09T23:01:50.290Z,1.56
2022-12-09T23:04:22.261Z,1.57
2022-12-09T23:06:51.943Z,1.59
2022-12-09T23:09:25.410Z,1.59
2022-12-09T23:11:55.098Z,1.59
2022-12-09T23:14:23.978Z,1.59
2022-12-09T23:16:52.629Z,1.60
2022-12-09T23:19:21.426Z,1.61
2022-12-09T23:21:50.185Z,1.63
2022-12-09T23:24:24.690Z,1.64
2022-12-09T23:26:56.411Z,1.64
2022-12-09T23:29:25.289Z,1.65
2022-12-09T23:31:54.217Z,1.67
2022-12-09T23:34:23.910Z,1.69
2022-12-09T23:37:12.976Z,1.71
2022-12-09T23:39:45.817Z,1.71
2022-12-09T23:42:14.777Z,1.70
2022-12-09T23:44:43.507Z,1.70
2022-12-09T23:47:12.270Z,1.72
2022-12-09T23:49:40.985Z,1.73
2022-12-09T23:52:12.223Z,1.74
2022-12-09T23:54:47.029Z,1.75
2022-12-09T23:57:23.269Z,1.74
2022-12-09T23:59:52.488Z,1.74
